sensor_id;sensor_type;location;lat;lon;timestamp;P1;durP1;ratioP1;P2;durP2;ratioP2
15385;SDS011;7791;47.246;9.648;2023-03-14T00:01:24;1.43;;;0.97;;
15385;SDS011;7791;47.246;9.648;2023-03-14T00:03:50;2.13;;;1.10;;
15385;SDS011;7791;47.246;9.648;2023-03-14T00:06:16;1.67;;;0.70;;
15385;SDS011;7791;47.246;9.648;2023-03-14T00:08:42;0.93;;;0.73;;
15385;SDS011;7791;47.246;9.648;2023-03-14T00:11:09;1.90;;;0.70;;
15385;SDS011;7791;47.246;9.648;2023-03-14T00:13:38;1.80;;;0.70;;
15385;SDS011;7791;47.246;9.648;2023-03-14T00:16:04;2.83;;;0.80;;
15385;SDS011;7791;47.246;9.648;2023-03-14T00:18:31;3.10;;;0.70;;
15385;SDS011;7791;47.246;9.648;2023-03-14T00:20:58;1.17;;;0.80;;
15385;SDS011;7791;47.246;9.648;2023-03-14T00:23:24;0.77;;;0.60;;
15385;SDS011;7791;47.246;9.648;2023-03-14T00:25:51;0.77;;;0.40;;
15385;SDS011;7791;47.246;9.648;2023-03-14T00:28:17;1.00;;;0.60;;
15385;SDS011;7791;47.246;9.648;2023-03-14T00:30:44;1.00;;;0.60;;
15385;SDS011;7791;47.246;9.648;2023-03-14T00:33:10;2.17;;;0.60;;
15385;SDS011;7791;47.246;9.648;2023-03-14T00:35:36;2.17;;;0.60;;
15385;SDS011;7791;47.246;9.648;2023-03-14T00:38:02;1.93;;;1.70;;
15385;SDS011;7791;47.246;9.648;2023-03-14T00:40:28;2.60;;;1.10;;
15385;SDS011;7791;47.246;9.648;2023-03-14T00:42:54;1.43;;;0.90;;
15385;SDS011;7791;47.246;9.648;2023-03-14T00:45:20;2.00;;;0.80;;
15385;SDS011;7791;47.246;9.648;2023-03-14T00:47:47;1.83;;;0.60;;
15385;SDS011;7791;47.246;9.648;2023-03-14T00:50:13;2.20;;;0.73;;
15385;SDS011;7791;47.246;9.648;2023-03-14T00:52:39;2.67;;;0.60;;
15385;SDS011;7791;47.246;9.648;2023-03-14T00:55:06;0.50;;;0.40;;
15385;SDS011;7791;47.246;9.648;2023-03-14T00:57:32;1.50;;;0.83;;
15385;SDS011;7791;47.246;9.648;2023-03-14T00:59:57;2.40;;;0.87;;
15385;SDS011;7791;47.246;9.648;2023-03-14T01:02:24;2.43;;;0.60;;
15385;SDS011;7791;47.246;9.648;2023-03-14T01:04:51;2.70;;;0.70;;
15385;SDS011;7791;47.246;9.648;2023-03-14T01:07:17;1.93;;;0.67;;
15385;SDS011;7791;47.246;9.648;2023-03-14T01:09:42;0.97;;;0.60;;
15385;SDS011;7791;47.246;9.648;2023-03-14T01:12:08;0.60;;;0.40;;
15385;SDS011;7791;47.246;9.648;2023-03-14T01:14:34;0.60;;;0.30;;
15385;SDS011;7791;47.246;9.648;2023-03-14T01:17:00;1.13;;;0.40;;
15385;SDS011;7791;47.246;9.648;2023-03-14T01:19:26;1.90;;;0.40;;
15385;SDS011;7791;47.246;9.648;2023-03-14T01:21:54;0.80;;;0.40;;
15385;SDS011;7791;47.246;9.648;2023-03-14T01:24:20;0.43;;;0.20;;
15385;SDS011;7791;47.246;9.648;2023-03-14T01:26:46;1.70;;;0.30;;
15385;SDS011;7791;47.246;9.648;2023-03-14T01:29:12;0.57;;;0.10;;
15385;SDS011;7791;47.246;9.648;2023-03-14T01:31:38;0.97;;;0.30;;
15385;SDS011;7791;47.246;9.648;2023-03-14T01:34:04;1.97;;;0.20;;
15385;SDS011;7791;47.246;9.648;2023-03-14T01:36:30;2.87;;;0.33;;
15385;SDS011;7791;47.246;9.648;2023-03-14T01:38:57;0.10;;;0.03;;
15385;SDS011;7791;47.246;9.648;2023-03-14T01:41:24;2.13;;;0.23;;
15385;SDS011;7791;47.246;9.648;2023-03-14T01:43:51;0.47;;;0.30;;
15385;SDS011;7791;47.246;9.648;2023-03-14T01:46:19;1.80;;;0.40;;
15385;SDS011;7791;47.246;9.648;2023-03-14T01:48:57;1.40;;;0.20;;
15385;SDS011;7791;47.246;9.648;2023-03-14T01:51:27;0.20;;;0.10;;
15385;SDS011;7791;47.246;9.648;2023-03-14T01:53:59;0.93;;;0.30;;
15385;SDS011;7791;47.246;9.648;2023-03-14T01:56:31;0.67;;;0.30;;
15385;SDS011;7791;47.246;9.648;2023-03-14T01:58:57;0.40;;;0.30;;
15385;SDS011;7791;47.246;9.648;2023-03-14T02:01:24;0.20;;;0.20;;
15385;SDS011;7791;47.246;9.648;2023-03-14T02:03:52;0.40;;;0.40;;
15385;SDS011;7791;47.246;9.648;2023-03-14T02:06:21;2.83;;;0.50;;
15385;SDS011;7791;47.246;9.648;2023-03-14T02:08:50;0.60;;;0.30;;
15385;SDS011;7791;47.246;9.648;2023-03-14T02:11:18;0.90;;;0.43;;
15385;SDS011;7791;47.246;9.648;2023-03-14T02:13:44;1.00;;;0.30;;
15385;SDS011;7791;47.246;9.648;2023-03-14T02:16:11;0.87;;;0.40;;
15385;SDS011;7791;47.246;9.648;2023-03-14T02:18:37;0.90;;;0.10;;
15385;SDS011;7791;47.246;9.648;2023-03-14T02:21:04;0.23;;;0.10;;
15385;SDS011;7791;47.246;9.648;2023-03-14T02:23:38;1.87;;;0.40;;
15385;SDS011;7791;47.246;9.648;2023-03-14T02:26:08;1.50;;;0.30;;
15385;SDS011;7791;47.246;9.648;2023-03-14T02:28:41;0.20;;;0.17;;
15385;SDS011;7791;47.246;9.648;2023-03-14T02:31:07;1.27;;;0.20;;
15385;SDS011;7791;47.246;9.648;2023-03-14T02:33:34;1.50;;;0.50;;
15385;SDS011;7791;47.246;9.648;2023-03-14T02:36:03;0.77;;;0.27;;
15385;SDS011;7791;47.246;9.648;2023-03-14T02:38:33;1.60;;;0.27;;
15385;SDS011;7791;47.246;9.648;2023-03-14T02:41:02;1.10;;;0.30;;
15385;SDS011;7791;47.246;9.648;2023-03-14T02:43:29;1.00;;;0.40;;
15385;SDS011;7791;47.246;9.648;2023-03-14T02:45:56;0.40;;;0.20;;
15385;SDS011;7791;47.246;9.648;2023-03-14T02:48:24;1.03;;;0.30;;
15385;SDS011;7791;47.246;9.648;2023-03-14T02:50:52;0.70;;;0.30;;
15385;SDS011;7791;47.246;9.648;2023-03-14T02:53:20;1.63;;;0.30;;
15385;SDS011;7791;47.246;9.648;2023-03-14T02:55:50;2.03;;;0.20;;
15385;SDS011;7791;47.246;9.648;2023-03-14T02:58:16;0.10;;;0.10;;
15385;SDS011;7791;47.246;9.648;2023-03-14T03:00:43;3.07;;;0.20;;
15385;SDS011;7791;47.246;9.648;2023-03-14T03:03:11;0.17;;;0.10;;
15385;SDS011;7791;47.246;9.648;2023-03-14T03:05:37;0.97;;;0.20;;
15385;SDS011;7791;47.246;9.648;2023-03-14T03:08:03;0.50;;;0.20;;
15385;SDS011;7791;47.246;9.648;2023-03-14T03:10:29;1.37;;;0.30;;
15385;SDS011;7791;47.246;9.648;2023-03-14T03:12:56;0.93;;;0.53;;
15385;SDS011;7791;47.246;9.648;2023-03-14T03:15:22;1.27;;;0.30;;
15385;SDS011;7791;47.246;9.648;2023-03-14T03:17:48;0.43;;;0.20;;
15385;SDS011;7791;47.246;9.648;2023-03-14T03:20:16;1.87;;;0.40;;
15385;SDS011;7791;47.246;9.648;2023-03-14T03:22:42;0.83;;;0.50;;
15385;SDS011;7791;47.246;9.648;2023-03-14T03:25:08;0.20;;;0.20;;
15385;SDS011;7791;47.246;9.648;2023-03-14T03:27:36;2.07;;;0.30;;
15385;SDS011;7791;47.246;9.648;2023-03-14T03:30:03;1.80;;;0.40;;
15385;SDS011;7791;47.246;9.648;2023-03-14T03:32:30;0.30;;;0.30;;
15385;SDS011;7791;47.246;9.648;2023-03-14T03:34:56;1.77;;;0.30;;
15385;SDS011;7791;47.246;9.648;2023-03-14T03:37:23;1.30;;;0.47;;
15385;SDS011;7791;47.246;9.648;2023-03-14T03:39:49;0.80;;;0.40;;
15385;SDS011;7791;47.246;9.648;2023-03-14T03:42:15;3.17;;;0.50;;
15385;SDS011;7791;47.246;9.648;2023-03-14T03:44:41;0.63;;;0.27;;
15385;SDS011;7791;47.246;9.648;2023-03-14T03:47:07;0.80;;;0.30;;
15385;SDS011;7791;47.246;9.648;2023-03-14T03:49:33;0.30;;;0.30;;
15385;SDS011;7791;47.246;9.648;2023-03-14T03:51:59;1.30;;;0.40;;
15385;SDS011;7791;47.246;9.648;2023-03-14T03:54:27;1.00;;;0.33;;
15385;SDS011;7791;47.246;9.648;2023-03-14T03:56:52;0.90;;;0.30;;
15385;SDS011;7791;47.246;9.648;2023-03-14T03:59:18;1.53;;;0.33;;
15385;SDS011;7791;47.246;9.648;2023-03-14T04:01:44;1.77;;;0.30;;
15385;SDS011;7791;47.246;9.648;2023-03-14T04:04:11;0.57;;;0.23;;
15385;SDS011;7791;47.246;9.648;2023-03-14T04:06:37;1.20;;;0.50;;
15385;SDS011;7791;47.246;9.648;2023-03-14T04:09:03;1.40;;;0.30;;
15385;SDS011;7791;47.246;9.648;2023-03-14T04:11:31;0.60;;;0.40;;
15385;SDS011;7791;47.246;9.648;2023-03-14T04:13:57;2.00;;;0.47;;
15385;SDS011;7791;47.246;9.648;2023-03-14T04:16:23;2.07;;;0.50;;
15385;SDS011;7791;47.246;9.648;2023-03-14T04:18:50;4.10;;;0.90;;
15385;SDS011;7791;47.246;9.648;2023-03-14T04:21:16;1.23;;;0.60;;
15385;SDS011;7791;47.246;9.648;2023-03-14T04:23:42;1.30;;;0.50;;
15385;SDS011;7791;47.246;9.648;2023-03-14T04:26:08;2.10;;;0.40;;
15385;SDS011;7791;47.246;9.648;2023-03-14T04:28:36;2.73;;;0.50;;
15385;SDS011;7791;47.246;9.648;2023-03-14T04:31:06;0.83;;;0.40;;
15385;SDS011;7791;47.246;9.648;2023-03-14T04:33:34;1.57;;;0.50;;
15385;SDS011;7791;47.246;9.648;2023-03-14T04:36:00;1.27;;;0.60;;
15385;SDS011;7791;47.246;9.648;2023-03-14T04:38:26;0.50;;;0.20;;
15385;SDS011;7791;47.246;9.648;2023-03-14T04:40:52;0.70;;;0.50;;
15385;SDS011;7791;47.246;9.648;2023-03-14T04:43:18;0.37;;;0.37;;
15385;SDS011;7791;47.246;9.648;2023-03-14T04:45:46;0.40;;;0.37;;
15385;SDS011;7791;47.246;9.648;2023-03-14T04:48:13;0.20;;;0.20;;
15385;SDS011;7791;47.246;9.648;2023-03-14T04:50:39;0.30;;;0.20;;
15385;SDS011;7791;47.246;9.648;2023-03-14T04:53:05;0.57;;;0.20;;
15385;SDS011;7791;47.246;9.648;2023-03-14T04:55:31;0.27;;;0.20;;
15385;SDS011;7791;47.246;9.648;2023-03-14T04:58:00;1.47;;;0.20;;
15385;SDS011;7791;47.246;9.648;2023-03-14T05:00:26;0.57;;;0.50;;
15385;SDS011;7791;47.246;9.648;2023-03-14T05:03:00;2.07;;;0.60;;
15385;SDS011;7791;47.246;9.648;2023-03-14T05:05:27;1.40;;;0.60;;
15385;SDS011;7791;47.246;9.648;2023-03-14T05:07:52;0.43;;;0.30;;
15385;SDS011;7791;47.246;9.648;2023-03-14T05:10:19;0.50;;;0.20;;
15385;SDS011;7791;47.246;9.648;2023-03-14T05:12:45;0.97;;;0.33;;
15385;SDS011;7791;47.246;9.648;2023-03-14T05:15:10;0.93;;;0.37;;
15385;SDS011;7791;47.246;9.648;2023-03-14T05:17:36;0.57;;;0.40;;
15385;SDS011;7791;47.246;9.648;2023-03-14T05:20:04;0.50;;;0.30;;
15385;SDS011;7791;47.246;9.648;2023-03-14T05:22:30;0.73;;;0.40;;
15385;SDS011;7791;47.246;9.648;2023-03-14T05:24:56;0.73;;;0.33;;
15385;SDS011;7791;47.246;9.648;2023-03-14T05:27:22;0.33;;;0.20;;
15385;SDS011;7791;47.246;9.648;2023-03-14T05:29:48;0.50;;;0.30;;
15385;SDS011;7791;47.246;9.648;2023-03-14T05:32:14;0.67;;;0.33;;
15385;SDS011;7791;47.246;9.648;2023-03-14T05:34:39;2.63;;;0.43;;
15385;SDS011;7791;47.246;9.648;2023-03-14T05:37:07;1.27;;;0.50;;
15385;SDS011;7791;47.246;9.648;2023-03-14T05:39:33;1.60;;;0.50;;
15385;SDS011;7791;47.246;9.648;2023-03-14T05:41:58;0.47;;;0.43;;
15385;SDS011;7791;47.246;9.648;2023-03-14T05:44:24;0.50;;;0.50;;
15385;SDS011;7791;47.246;9.648;2023-03-14T05:46:50;1.13;;;0.43;;
15385;SDS011;7791;47.246;9.648;2023-03-14T05:49:15;0.70;;;0.60;;
15385;SDS011;7791;47.246;9.648;2023-03-14T05:51:41;1.73;;;0.50;;
15385;SDS011;7791;47.246;9.648;2023-03-14T05:54:09;0.73;;;0.53;;
15385;SDS011;7791;47.246;9.648;2023-03-14T05:56:35;0.80;;;0.40;;
15385;SDS011;7791;47.246;9.648;2023-03-14T05:59:00;1.17;;;0.20;;
15385;SDS011;7791;47.246;9.648;2023-03-14T06:01:27;2.53;;;0.67;;
15385;SDS011;7791;47.246;9.648;2023-03-14T06:03:53;1.60;;;0.40;;
15385;SDS011;7791;47.246;9.648;2023-03-14T06:06:18;2.37;;;1.20;;
15385;SDS011;7791;47.246;9.648;2023-03-14T06:08:44;4.83;;;2.20;;
15385;SDS011;7791;47.246;9.648;2023-03-14T06:11:11;2.27;;;1.00;;
15385;SDS011;7791;47.246;9.648;2023-03-14T06:13:37;2.13;;;1.17;;
15385;SDS011;7791;47.246;9.648;2023-03-14T06:16:03;1.13;;;0.33;;
15385;SDS011;7791;47.246;9.648;2023-03-14T06:18:30;1.73;;;0.90;;
15385;SDS011;7791;47.246;9.648;2023-03-14T06:20:56;1.47;;;0.77;;
15385;SDS011;7791;47.246;9.648;2023-03-14T06:23:22;1.73;;;0.50;;
15385;SDS011;7791;47.246;9.648;2023-03-14T06:25:48;2.13;;;0.80;;
15385;SDS011;7791;47.246;9.648;2023-03-14T06:28:16;2.23;;;0.70;;
15385;SDS011;7791;47.246;9.648;2023-03-14T06:30:42;2.10;;;0.77;;
15385;SDS011;7791;47.246;9.648;2023-03-14T06:33:08;2.20;;;1.00;;
15385;SDS011;7791;47.246;9.648;2023-03-14T06:35:34;1.20;;;1.00;;
15385;SDS011;7791;47.246;9.648;2023-03-14T06:38:00;1.97;;;0.93;;
15385;SDS011;7791;47.246;9.648;2023-03-14T06:40:26;3.33;;;1.20;;
15385;SDS011;7791;47.246;9.648;2023-03-14T06:42:52;1.87;;;0.90;;
15385;SDS011;7791;47.246;9.648;2023-03-14T06:45:19;1.73;;;1.00;;
15385;SDS011;7791;47.246;9.648;2023-03-14T06:47:45;1.30;;;0.70;;
15385;SDS011;7791;47.246;9.648;2023-03-14T06:50:11;2.27;;;0.70;;
15385;SDS011;7791;47.246;9.648;2023-03-14T06:52:37;3.27;;;0.90;;
15385;SDS011;7791;47.246;9.648;2023-03-14T06:55:03;2.13;;;0.87;;
15385;SDS011;7791;47.246;9.648;2023-03-14T06:57:30;1.47;;;0.90;;
15385;SDS011;7791;47.246;9.648;2023-03-14T06:59:56;3.17;;;1.40;;
15385;SDS011;7791;47.246;9.648;2023-03-14T07:02:23;4.10;;;3.40;;
15385;SDS011;7791;47.246;9.648;2023-03-14T07:04:54;2.57;;;2.37;;
15385;SDS011;7791;47.246;9.648;2023-03-14T07:07:20;2.43;;;2.07;;
15385;SDS011;7791;47.246;9.648;2023-03-14T07:09:46;4.50;;;4.10;;
15385;SDS011;7791;47.246;9.648;2023-03-14T07:12:11;2.47;;;1.40;;
15385;SDS011;7791;47.246;9.648;2023-03-14T07:14:38;3.00;;;2.37;;
15385;SDS011;7791;47.246;9.648;2023-03-14T07:17:05;1.03;;;0.93;;
15385;SDS011;7791;47.246;9.648;2023-03-14T07:19:32;4.73;;;3.80;;
15385;SDS011;7791;47.246;9.648;2023-03-14T07:21:58;2.00;;;1.10;;
15385;SDS011;7791;47.246;9.648;2023-03-14T07:24:24;2.73;;;0.90;;
15385;SDS011;7791;47.246;9.648;2023-03-14T07:26:49;2.10;;;1.03;;
15385;SDS011;7791;47.246;9.648;2023-03-14T07:29:15;2.03;;;0.90;;
15385;SDS011;7791;47.246;9.648;2023-03-14T07:31:41;1.07;;;0.80;;
15385;SDS011;7791;47.246;9.648;2023-03-14T07:34:07;2.10;;;0.83;;
15385;SDS011;7791;47.246;9.648;2023-03-14T07:36:34;1.20;;;0.60;;
15385;SDS011;7791;47.246;9.648;2023-03-14T07:39:00;1.80;;;1.00;;
15385;SDS011;7791;47.246;9.648;2023-03-14T07:41:26;2.13;;;1.10;;
15385;SDS011;7791;47.246;9.648;2023-03-14T07:43:51;1.57;;;0.90;;
15385;SDS011;7791;47.246;9.648;2023-03-14T07:46:17;3.10;;;1.00;;
15385;SDS011;7791;47.246;9.648;2023-03-14T07:48:43;4.83;;;1.20;;
15385;SDS011;7791;47.246;9.648;2023-03-14T07:51:09;1.77;;;1.00;;
15385;SDS011;7791;47.246;9.648;2023-03-14T07:53:37;1.47;;;0.70;;
15385;SDS011;7791;47.246;9.648;2023-03-14T07:56:02;2.30;;;1.00;;
15385;SDS011;7791;47.246;9.648;2023-03-14T07:58:29;1.10;;;0.67;;
15385;SDS011;7791;47.246;9.648;2023-03-14T08:00:54;2.33;;;0.73;;
15385;SDS011;7791;47.246;9.648;2023-03-14T08:03:23;3.53;;;1.07;;
15385;SDS011;7791;47.246;9.648;2023-03-14T08:05:49;2.43;;;1.07;;
15385;SDS011;7791;47.246;9.648;2023-03-14T08:08:16;1.93;;;0.80;;
15385;SDS011;7791;47.246;9.648;2023-03-14T08:10:44;4.63;;;0.80;;
15385;SDS011;7791;47.246;9.648;2023-03-14T08:13:10;1.10;;;0.70;;
15385;SDS011;7791;47.246;9.648;2023-03-14T08:15:36;4.83;;;1.50;;
15385;SDS011;7791;47.246;9.648;2023-03-14T08:18:02;4.73;;;2.77;;
15385;SDS011;7791;47.246;9.648;2023-03-14T08:20:28;3.13;;;1.33;;
15385;SDS011;7791;47.246;9.648;2023-03-14T08:22:55;2.53;;;2.33;;
15385;SDS011;7791;47.246;9.648;2023-03-14T08:25:21;2.60;;;1.23;;
15385;SDS011;7791;47.246;9.648;2023-03-14T08:27:49;1.90;;;0.80;;
15385;SDS011;7791;47.246;9.648;2023-03-14T08:30:16;1.07;;;0.83;;
15385;SDS011;7791;47.246;9.648;2023-03-14T08:32:43;1.90;;;1.40;;
15385;SDS011;7791;47.246;9.648;2023-03-14T08:35:09;2.30;;;2.10;;
15385;SDS011;7791;47.246;9.648;2023-03-14T08:37:37;1.87;;;1.23;;
15385;SDS011;7791;47.246;9.648;2023-03-14T08:40:03;3.23;;;2.00;;
15385;SDS011;7791;47.246;9.648;2023-03-14T08:42:30;1.80;;;1.07;;
15385;SDS011;7791;47.246;9.648;2023-03-14T08:44:57;2.30;;;2.10;;
15385;SDS011;7791;47.246;9.648;2023-03-14T08:47:24;2.73;;;2.17;;
15385;SDS011;7791;47.246;9.648;2023-03-14T08:49:51;1.00;;;0.90;;
15385;SDS011;7791;47.246;9.648;2023-03-14T08:52:17;1.17;;;0.80;;
15385;SDS011;7791;47.246;9.648;2023-03-14T08:54:43;0.80;;;0.60;;
15385;SDS011;7791;47.246;9.648;2023-03-14T08:57:09;0.70;;;0.50;;
15385;SDS011;7791;47.246;9.648;2023-03-14T08:59:35;1.90;;;0.73;;
15385;SDS011;7791;47.246;9.648;2023-03-14T09:02:02;1.13;;;0.60;;
15385;SDS011;7791;47.246;9.648;2023-03-14T09:04:29;1.07;;;0.60;;
15385;SDS011;7791;47.246;9.648;2023-03-14T09:06:56;1.10;;;1.00;;
15385;SDS011;7791;47.246;9.648;2023-03-14T09:09:22;6.70;;;5.20;;
15385;SDS011;7791;47.246;9.648;2023-03-14T09:11:49;4.93;;;3.50;;
15385;SDS011;7791;47.246;9.648;2023-03-14T09:14:15;4.80;;;3.50;;
15385;SDS011;7791;47.246;9.648;2023-03-14T09:16:41;6.27;;;5.67;;
15385;SDS011;7791;47.246;9.648;2023-03-14T09:19:08;10.60;;;9.57;;
15385;SDS011;7791;47.246;9.648;2023-03-14T09:21:34;2.70;;;2.33;;
15385;SDS011;7791;47.246;9.648;2023-03-14T09:24:01;1.50;;;0.83;;
15385;SDS011;7791;47.246;9.648;2023-03-14T09:26:26;5.50;;;4.60;;
15385;SDS011;7791;47.246;9.648;2023-03-14T09:28:52;3.10;;;2.83;;
15385;SDS011;7791;47.246;9.648;2023-03-14T09:31:18;1.03;;;0.80;;
15385;SDS011;7791;47.246;9.648;2023-03-14T09:33:44;0.97;;;0.67;;
15385;SDS011;7791;47.246;9.648;2023-03-14T09:36:12;2.87;;;1.60;;
15385;SDS011;7791;47.246;9.648;2023-03-14T09:38:38;1.50;;;1.40;;
15385;SDS011;7791;47.246;9.648;2023-03-14T09:41:10;1.83;;;0.60;;
15385;SDS011;7791;47.246;9.648;2023-03-14T09:43:39;1.47;;;0.90;;
15385;SDS011;7791;47.246;9.648;2023-03-14T09:46:07;1.20;;;0.50;;
15385;SDS011;7791;47.246;9.648;2023-03-14T09:48:35;1.33;;;0.90;;
15385;SDS011;7791;47.246;9.648;2023-03-14T09:51:01;2.93;;;2.33;;
15385;SDS011;7791;47.246;9.648;2023-03-14T09:53:34;3.57;;;1.50;;
15385;SDS011;7791;47.246;9.648;2023-03-14T09:56:07;0.80;;;0.60;;
15385;SDS011;7791;47.246;9.648;2023-03-14T09:58:37;0.73;;;0.40;;
15385;SDS011;7791;47.246;9.648;2023-03-14T10:01:07;1.23;;;0.57;;
15385;SDS011;7791;47.246;9.648;2023-03-14T10:03:39;1.07;;;0.50;;
15385;SDS011;7791;47.246;9.648;2023-03-14T10:06:10;0.90;;;0.50;;
15385;SDS011;7791;47.246;9.648;2023-03-14T10:08:44;0.40;;;0.40;;
15385;SDS011;7791;47.246;9.648;2023-03-14T10:11:14;3.07;;;0.70;;
15385;SDS011;7791;47.246;9.648;2023-03-14T10:13:47;1.00;;;0.60;;
15385;SDS011;7791;47.246;9.648;2023-03-14T10:16:28;0.60;;;0.40;;
15385;SDS011;7791;47.246;9.648;2023-03-14T10:18:58;2.20;;;0.80;;
15385;SDS011;7791;47.246;9.648;2023-03-14T10:21:27;0.60;;;0.50;;
15385;SDS011;7791;47.246;9.648;2023-03-14T10:23:56;0.50;;;0.40;;
15385;SDS011;7791;47.246;9.648;2023-03-14T10:26:33;2.40;;;0.70;;
15385;SDS011;7791;47.246;9.648;2023-03-14T10:29:02;1.07;;;0.50;;
15385;SDS011;7791;47.246;9.648;2023-03-14T10:31:29;1.63;;;1.17;;
15385;SDS011;7791;47.246;9.648;2023-03-14T10:34:15;2.90;;;0.70;;
15385;SDS011;7791;47.246;9.648;2023-03-14T10:36:42;2.70;;;0.90;;
15385;SDS011;7791;47.246;9.648;2023-03-14T10:42:03;1.63;;;0.80;;
15385;SDS011;7791;47.246;9.648;2023-03-14T10:44:31;5.63;;;0.80;;
15385;SDS011;7791;47.246;9.648;2023-03-14T10:47:00;1.10;;;0.70;;
15385;SDS011;7791;47.246;9.648;2023-03-14T10:49:28;3.43;;;0.80;;
15385;SDS011;7791;47.246;9.648;2023-03-14T10:51:56;1.80;;;1.43;;
15385;SDS011;7791;47.246;9.648;2023-03-14T10:54:29;1.90;;;1.20;;
15385;SDS011;7791;47.246;9.648;2023-03-14T10:56:57;1.73;;;1.00;;
15385;SDS011;7791;47.246;9.648;2023-03-14T10:59:25;2.70;;;0.73;;
15385;SDS011;7791;47.246;9.648;2023-03-14T11:01:55;2.53;;;0.70;;
15385;SDS011;7791;47.246;9.648;2023-03-14T11:04:27;1.70;;;0.70;;
15385;SDS011;7791;47.246;9.648;2023-03-14T11:07:10;3.37;;;0.70;;
15385;SDS011;7791;47.246;9.648;2023-03-14T11:09:41;5.10;;;1.20;;
15385;SDS011;7791;47.246;9.648;2023-03-14T11:12:17;2.10;;;0.90;;
15385;SDS011;7791;47.246;9.648;2023-03-14T11:14:54;1.77;;;0.70;;
15385;SDS011;7791;47.246;9.648;2023-03-14T11:17:27;2.00;;;1.20;;
15385;SDS011;7791;47.246;9.648;2023-03-14T11:20:04;4.47;;;2.70;;
15385;SDS011;7791;47.246;9.648;2023-03-14T11:22:47;1.57;;;0.70;;
15385;SDS011;7791;47.246;9.648;2023-03-14T11:25:21;0.60;;;0.40;;
15385;SDS011;7791;47.246;9.648;2023-03-14T11:28:00;1.13;;;0.57;;
15385;SDS011;7791;47.246;9.648;2023-03-14T11:30:34;0.40;;;0.40;;
15385;SDS011;7791;47.246;9.648;2023-03-14T11:33:05;0.43;;;0.20;;
15385;SDS011;7791;47.246;9.648;2023-03-14T11:35:39;1.50;;;0.80;;
15385;SDS011;7791;47.246;9.648;2023-03-14T11:38:12;2.47;;;1.00;;
15385;SDS011;7791;47.246;9.648;2023-03-14T11:40:48;0.80;;;0.57;;
15385;SDS011;7791;47.246;9.648;2023-03-14T11:43:20;0.63;;;0.40;;
15385;SDS011;7791;47.246;9.648;2023-03-14T11:45:51;1.20;;;0.80;;
15385;SDS011;7791;47.246;9.648;2023-03-14T11:48:22;2.50;;;0.60;;
15385;SDS011;7791;47.246;9.648;2023-03-14T11:50:55;1.17;;;0.50;;
15385;SDS011;7791;47.246;9.648;2023-03-14T11:53:25;0.83;;;0.70;;
15385;SDS011;7791;47.246;9.648;2023-03-14T11:56:06;0.73;;;0.30;;
15385;SDS011;7791;47.246;9.648;2023-03-14T11:58:39;0.50;;;0.40;;
15385;SDS011;7791;47.246;9.648;2023-03-14T12:01:12;0.30;;;0.30;;
15385;SDS011;7791;47.246;9.648;2023-03-14T12:03:42;2.07;;;0.40;;
15385;SDS011;7791;47.246;9.648;2023-03-14T12:06:18;1.17;;;0.70;;
15385;SDS011;7791;47.246;9.648;2023-03-14T12:08:49;0.80;;;0.50;;
15385;SDS011;7791;47.246;9.648;2023-03-14T12:11:19;2.20;;;0.50;;
15385;SDS011;7791;47.246;9.648;2023-03-14T12:13:50;0.73;;;0.50;;
15385;SDS011;7791;47.246;9.648;2023-03-14T12:16:30;1.17;;;0.77;;
15385;SDS011;7791;47.246;9.648;2023-03-14T12:19:09;1.53;;;0.80;;
15385;SDS011;7791;47.246;9.648;2023-03-14T12:21:44;3.37;;;0.70;;
15385;SDS011;7791;47.246;9.648;2023-03-14T12:24:16;1.60;;;0.63;;
15385;SDS011;7791;47.246;9.648;2023-03-14T12:26:46;0.30;;;0.30;;
15385;SDS011;7791;47.246;9.648;2023-03-14T12:29:19;0.30;;;0.30;;
15385;SDS011;7791;47.246;9.648;2023-03-14T12:31:45;1.53;;;0.60;;
15385;SDS011;7791;47.246;9.648;2023-03-14T12:34:28;0.80;;;0.30;;
15385;SDS011;7791;47.246;9.648;2023-03-14T12:36:59;0.70;;;0.37;;
15385;SDS011;7791;47.246;9.648;2023-03-14T12:39:37;0.20;;;0.20;;
15385;SDS011;7791;47.246;9.648;2023-03-14T12:42:11;0.33;;;0.30;;
15385;SDS011;7791;47.246;9.648;2023-03-14T12:44:40;0.40;;;0.30;;
15385;SDS011;7791;47.246;9.648;2023-03-14T12:50:13;0.23;;;0.20;;
15385;SDS011;7791;47.246;9.648;2023-03-14T12:52:45;0.20;;;0.20;;
15385;SDS011;7791;47.246;9.648;2023-03-14T12:55:32;0.20;;;0.13;;
15385;SDS011;7791;47.246;9.648;2023-03-14T12:58:03;0.20;;;0.17;;
15385;SDS011;7791;47.246;9.648;2023-03-14T13:00:38;0.70;;;0.30;;
15385;SDS011;7791;47.246;9.648;2023-03-14T13:03:12;0.17;;;0.17;;
15385;SDS011;7791;47.246;9.648;2023-03-14T13:05:51;0.40;;;0.20;;
15385;SDS011;7791;47.246;9.648;2023-03-14T13:08:32;0.50;;;0.10;;
15385;SDS011;7791;47.246;9.648;2023-03-14T13:10:59;0.13;;;0.10;;
15385;SDS011;7791;47.246;9.648;2023-03-14T13:13:29;0.20;;;0.20;;
15385;SDS011;7791;47.246;9.648;2023-03-14T13:15:57;0.08;;;0.00;;
15385;SDS011;7791;47.246;9.648;2023-03-14T13:18:26;0.10;;;0.10;;
15385;SDS011;7791;47.246;9.648;2023-03-14T13:20:55;0.80;;;0.20;;
15385;SDS011;7791;47.246;9.648;2023-03-14T13:23:25;0.13;;;0.10;;
15385;SDS011;7791;47.246;9.648;2023-03-14T13:25:53;0.00;;;0.00;;
15385;SDS011;7791;47.246;9.648;2023-03-14T13:28:20;1.07;;;0.17;;
15385;SDS011;7791;47.246;9.648;2023-03-14T13:30:47;0.10;;;0.10;;
15385;SDS011;7791;47.246;9.648;2023-03-14T13:33:16;0.10;;;0.10;;
15385;SDS011;7791;47.246;9.648;2023-03-14T13:35:44;0.10;;;0.10;;
15385;SDS011;7791;47.246;9.648;2023-03-14T13:38:19;1.60;;;0.30;;
15385;SDS011;7791;47.246;9.648;2023-03-14T13:40:50;0.37;;;0.10;;
15385;SDS011;7791;47.246;9.648;2023-03-14T13:43:19;0.10;;;0.10;;
15385;SDS011;7791;47.246;9.648;2023-03-14T13:45:52;0.50;;;0.30;;
15385;SDS011;7791;47.246;9.648;2023-03-14T13:48:22;0.10;;;0.10;;
15385;SDS011;7791;47.246;9.648;2023-03-14T13:50:52;0.20;;;0.20;;
15385;SDS011;7791;47.246;9.648;2023-03-14T13:53:20;0.63;;;0.20;;
15385;SDS011;7791;47.246;9.648;2023-03-14T13:55:47;0.20;;;0.20;;
15385;SDS011;7791;47.246;9.648;2023-03-14T13:58:19;0.33;;;0.30;;
15385;SDS011;7791;47.246;9.648;2023-03-14T14:01:01;0.45;;;0.30;;
15385;SDS011;7791;47.246;9.648;2023-03-14T14:03:33;0.73;;;0.17;;
15385;SDS011;7791;47.246;9.648;2023-03-14T14:06:02;1.20;;;0.20;;
15385;SDS011;7791;47.246;9.648;2023-03-14T14:08:33;1.03;;;0.40;;
15385;SDS011;7791;47.246;9.648;2023-03-14T14:11:01;0.13;;;0.03;;
15385;SDS011;7791;47.246;9.648;2023-03-14T14:13:29;0.73;;;0.20;;
15385;SDS011;7791;47.246;9.648;2023-03-14T14:16:00;0.83;;;0.30;;
15385;SDS011;7791;47.246;9.648;2023-03-14T14:18:27;0.60;;;0.40;;
15385;SDS011;7791;47.246;9.648;2023-03-14T14:20:56;1.63;;;0.30;;
15385;SDS011;7791;47.246;9.648;2023-03-14T14:23:24;0.70;;;0.40;;
15385;SDS011;7791;47.246;9.648;2023-03-14T14:25:52;1.40;;;0.22;;
15385;SDS011;7791;47.246;9.648;2023-03-14T14:28:22;1.53;;;0.40;;
15385;SDS011;7791;47.246;9.648;2023-03-14T14:33:57;2.57;;;0.20;;
15385;SDS011;7791;47.246;9.648;2023-03-14T14:36:26;0.50;;;0.20;;
15385;SDS011;7791;47.246;9.648;2023-03-14T14:38:57;0.10;;;0.10;;
15385;SDS011;7791;47.246;9.648;2023-03-14T14:41:32;1.03;;;0.30;;
15385;SDS011;7791;47.246;9.648;2023-03-14T14:44:00;0.57;;;0.30;;
15385;SDS011;7791;47.246;9.648;2023-03-14T14:46:28;0.60;;;0.40;;
15385;SDS011;7791;47.246;9.648;2023-03-14T14:48:57;1.03;;;0.20;;
15385;SDS011;7791;47.246;9.648;2023-03-14T14:51:30;1.27;;;0.30;;
15385;SDS011;7791;47.246;9.648;2023-03-14T14:54:02;2.90;;;0.40;;
15385;SDS011;7791;47.246;9.648;2023-03-14T14:56:35;0.97;;;0.30;;
15385;SDS011;7791;47.246;9.648;2023-03-14T14:59:03;1.30;;;0.50;;
15385;SDS011;7791;47.246;9.648;2023-03-14T15:01:31;0.10;;;0.10;;
15385;SDS011;7791;47.246;9.648;2023-03-14T15:03:59;1.10;;;0.30;;
15385;SDS011;7791;47.246;9.648;2023-03-14T15:06:26;0.23;;;0.20;;
15385;SDS011;7791;47.246;9.648;2023-03-14T15:08:55;2.08;;;0.50;;
15385;SDS011;7791;47.246;9.648;2023-03-14T15:11:23;2.33;;;0.40;;
15385;SDS011;7791;47.246;9.648;2023-03-14T15:13:51;0.70;;;0.30;;
15385;SDS011;7791;47.246;9.648;2023-03-14T15:16:18;0.87;;;0.13;;